Time;durP1;ratioP1;P1;durP2;ratioP2;P2;SDS_P1;SDS_P2;PMS_P1;PMS_P2;Temp;Humidity;BMP_temperature;BMP_pressure;BME280_temperature;BME280_humidity;BME280_pressure;Samples;Min_cycle;Max_cycle;Signal;HPM_P1;HPM_P2
2022/12/24 00:00:11;;;;;;;;;;;6.50;99.90;;;;;;4979560;28;20465;-76
2022/12/24 00:02:36;;;;;;;;;;;6.50;99.90;;;;;;4971976;28;20039;-72
2022/12/24 00:05:02;;;;;;;;;;;6.80;99.90;;;;;;4974779;28;20357;-74
2022/12/24 00:07:28;;;;;;;;;;;6.50;99.90;;;;;;4973084;28;19980;-75
2022/12/24 00:09:53;;;;;;;;;;;6.50;99.90;;;;;;4978406;28;20008;-74
2022/12/24 00:12:19;;;;;;;;;;;7.40;99.90;;;;;;4982573;28;19918;-75
2022/12/24 00:14:44;;;;;;;;;;;6.50;99.90;;;;;;4980588;28;19945;-73
2022/12/24 00:17:10;;;;;;;;;;;6.60;99.90;;;;;;4983869;28;20423;-74
2022/12/24 00:19:35;;;;;;;;;;;6.60;99.90;;;;;;4977477;28;19921;-73
2022/12/24 00:22:01;;;;;;;;;;;6.50;99.90;;;;;;4979632;28;19922;-74
2022/12/24 00:24:26;;;;;;;;;;;6.50;99.90;;;;;;4980809;28;19931;-73
2022/12/24 00:26:52;;;;;;;;;;;6.70;99.90;;;;;;4979799;28;19926;-73
2022/12/24 00:29:17;;;;;;;;;;;6.50;99.90;;;;;;4975280;28;19929;-73
2022/12/24 00:31:43;;;;;;;;;;;6.50;99.90;;;;;;4969973;28;19926;-74
2022/12/24 00:34:08;;;;;;;;;;;6.50;99.90;;;;;;4971030;28;20373;-74
2022/12/24 00:36:34;;;;;;;;;;;6.80;99.90;;;;;;4973975;28;19922;-74
2022/12/24 00:38:59;;;;;;;;;;;7.00;99.90;;;;;;4979444;28;20443;-73
2022/12/24 00:41:27;;;;;;;;;;;6.50;99.90;;;;;;4978342;28;19969;-75
2022/12/24 00:43:54;;;;;;;;;;;6.50;99.90;;;;;;4983184;28;20000;-76
2022/12/24 00:46:20;;;;;;;;;;;6.50;99.90;;;;;;4984460;28;19929;-75
2022/12/24 00:48:46;;;;;;;;;;;6.50;99.90;;;;;;4986071;28;19921;-75
2022/12/24 00:51:12;;;;;;;;;;;6.50;99.90;;;;;;4982858;28;20378;-76
2022/12/24 00:53:37;;;;;;;;;;;6.60;99.90;;;;;;4982363;28;19922;-75
2022/12/24 00:56:03;;;;;;;;;;;6.80;99.90;;;;;;4986758;28;19929;-75
2022/12/24 00:58:28;;;;;;;;;;;6.50;99.90;;;;;;4983838;28;19925;-74
2022/12/24 01:00:54;;;;;;;;;;;6.50;99.90;;;;;;4986688;28;19922;-75
2022/12/24 01:03:19;;;;;;;;;;;6.60;99.90;;;;;;4985654;28;19921;-75
2022/12/24 01:05:47;;;;;;;;;;;7.40;99.90;;;;;;4984750;28;19929;-75
2022/12/24 01:08:12;;;;;;;;;;;6.50;99.90;;;;;;4986710;28;19979;-75
2022/12/24 01:10:38;;;;;;;;;;;6.60;99.90;;;;;;4984944;28;20289;-76
2022/12/24 01:13:03;;;;;;;;;;;7.00;99.90;;;;;;4987104;28;19929;-75
2022/12/24 01:15:29;;;;;;;;;;;6.80;99.90;;;;;;4984220;28;20017;-75
2022/12/24 01:17:55;;;;;;;;;;;6.60;99.90;;;;;;4986641;28;20008;-75
2022/12/24 01:20:20;;;;;;;;;;;6.50;99.90;;;;;;4982910;28;19992;-75
2022/12/24 01:22:47;;;;;;;;;;;6.60;99.90;;;;;;4984604;28;19926;-75
2022/12/24 01:25:13;;;;;;;;;;;7.00;99.90;;;;;;4985908;28;19953;-75
2022/12/24 01:27:39;;;;;;;;;;;6.60;99.90;;;;;;4985754;28;20369;-75
2022/12/24 01:30:06;;;;;;;;;;;6.80;99.90;;;;;;4983357;28;19922;-74
2022/12/24 01:32:31;;;;;;;;;;;6.60;99.90;;;;;;4987513;28;20032;-75
2022/12/24 01:34:58;;;;;;;;;;;6.60;99.90;;;;;;4983158;28;20421;-75
2022/12/24 01:37:24;;;;;;;;;;;6.80;99.90;;;;;;4986237;28;19940;-75
2022/12/24 01:39:50;;;;;;;;;;;6.60;99.90;;;;;;4984657;28;19922;-75
2022/12/24 01:45:20;;;;;;;;;;;6.60;99.90;;;;;;4981422;28;19930;-75
2022/12/24 01:47:46;;;;;;;;;;;6.60;99.90;;;;;;4983080;28;19925;-75
2022/12/24 01:50:13;;;;;;;;;;;7.10;99.90;;;;;;4985114;28;19969;-75
2022/12/24 01:52:39;;;;;;;;;;;6.70;99.90;;;;;;4985151;28;20032;-74
2022/12/24 01:55:04;;;;;;;;;;;7.30;99.90;;;;;;4983727;28;20377;-75
2022/12/24 01:57:36;;;;;;;;;;;6.70;99.90;;;;;;4986252;28;19929;-74
2022/12/24 02:00:04;;;;;;;;;;;6.70;99.90;;;;;;4982965;28;19922;-74
2022/12/24 02:02:32;;;;;;;;;;;6.80;99.90;;;;;;4983845;28;19928;-75
2022/12/24 02:05:03;;;;;;;;;;;6.90;99.90;;;;;;4983820;28;19969;-76
2022/12/24 02:07:28;;;;;;;;;;;6.70;99.90;;;;;;4985996;28;19928;-75
2022/12/24 02:09:56;;;;;;;;;;;6.70;99.90;;;;;;4982609;28;19922;-75
2022/12/24 02:12:22;;;;;;;;;;;7.70;99.90;;;;;;4986596;28;19921;-75
2022/12/24 02:14:50;;;;;;;;;;;6.70;99.90;;;;;;4983664;28;20259;-76
2022/12/24 02:17:19;;;;;;;;;;;6.70;99.90;;;;;;4982267;28;19922;-74
2022/12/24 02:20:06;;;;;;;;;;;6.80;99.90;;;;;;4983202;28;19922;-75
2022/12/24 02:22:50;;;;;;;;;;;6.70;99.90;;;;;;4981749;28;20004;-75
2022/12/24 02:25:26;;;;;;;;;;;6.70;99.90;;;;;;4985816;28;20300;-76
2022/12/24 02:27:59;;;;;;;;;;;6.70;99.90;;;;;;4978389;28;19922;-75
2022/12/24 02:30:34;;;;;;;;;;;6.80;99.90;;;;;;4977930;28;19922;-76
2022/12/24 02:33:02;;;;;;;;;;;6.80;99.90;;;;;;4985078;28;19921;-75
2022/12/24 02:35:34;;;;;;;;;;;6.90;99.90;;;;;;4981541;28;19926;-76
2022/12/24 02:38:28;;;;;;;;;;;7.00;99.90;;;;;;4983484;28;20004;-75
2022/12/24 02:41:21;;;;;;;;;;;7.10;99.90;;;;;;4964973;28;20010;-75
2022/12/24 02:43:47;;;;;;;;;;;7.20;99.90;;;;;;4978108;28;19921;-75
2022/12/24 02:46:24;;;;;;;;;;;7.20;99.90;;;;;;4981583;28;19926;-76
2022/12/24 02:48:50;;;;;;;;;;;7.30;99.90;;;;;;4984124;28;19921;-75
2022/12/24 02:51:20;;;;;;;;;;;7.30;99.90;;;;;;4981995;28;19922;-76
2022/12/24 02:53:46;;;;;;;;;;;7.30;99.90;;;;;;4983901;28;20336;-75
2022/12/24 02:56:14;;;;;;;;;;;7.30;99.90;;;;;;4982855;28;19922;-76
2022/12/24 02:58:45;;;;;;;;;;;7.40;99.90;;;;;;4982803;28;19925;-75
2022/12/24 03:01:16;;;;;;;;;;;8.10;99.90;;;;;;4982540;28;19926;-76
2022/12/24 03:03:45;;;;;;;;;;;7.40;99.90;;;;;;4980557;28;19922;-76
2022/12/24 03:06:18;;;;;;;;;;;7.50;99.90;;;;;;4984949;28;19926;-76
2022/12/24 03:08:50;;;;;;;;;;;7.50;99.90;;;;;;4978697;28;19929;-76
2022/12/24 03:11:17;;;;;;;;;;;7.50;99.90;;;;;;4977643;28;19922;-75
2022/12/24 03:13:42;;;;;;;;;;;7.50;99.90;;;;;;4983206;28;19968;-76
2022/12/24 03:16:16;;;;;;;;;;;7.80;99.90;;;;;;4980955;28;20349;-75
2022/12/24 03:18:43;;;;;;;;;;;7.50;99.90;;;;;;4976573;28;19926;-75
2022/12/24 03:21:16;;;;;;;;;;;7.50;99.90;;;;;;4983902;28;20285;-75
2022/12/24 03:23:42;;;;;;;;;;;7.70;99.90;;;;;;4980694;28;19969;-75
2022/12/24 03:26:09;;;;;;;;;;;7.80;99.90;;;;;;4980853;28;19957;-75
2022/12/24 03:28:36;;;;;;;;;;;7.80;99.90;;;;;;4983290;28;19955;-75
2022/12/24 03:31:03;;;;;;;;;;;8.10;99.90;;;;;;4980921;28;19964;-75
2022/12/24 03:33:28;;;;;;;;;;;7.90;99.90;;;;;;4983554;28;19921;-75
2022/12/24 03:35:54;;;;;;;;;;;7.90;99.90;;;;;;4983143;28;19929;-75
2022/12/24 03:38:19;;;;;;;;;;;8.00;99.90;;;;;;4983685;28;19975;-75
2022/12/24 03:40:45;;;;;;;;;;;7.90;99.90;;;;;;4981084;28;20024;-76
2022/12/24 03:43:10;;;;;;;;;;;7.90;99.90;;;;;;4983507;28;19926;-76
2022/12/24 03:45:36;;;;;;;;;;;7.90;99.90;;;;;;4981624;28;20053;-74
2022/12/24 03:48:02;;;;;;;;;;;7.90;99.90;;;;;;4982619;28;19929;-75
2022/12/24 03:50:27;;;;;;;;;;;7.80;99.90;;;;;;4981812;28;19921;-75
2022/12/24 03:52:53;;;;;;;;;;;7.80;99.90;;;;;;4979899;28;19922;-75
2022/12/24 03:55:19;;;;;;;;;;;7.80;99.90;;;;;;4981337;28;19922;-75
2022/12/24 03:57:44;;;;;;;;;;;8.10;99.90;;;;;;4982994;28;20285;-75
2022/12/24 04:00:10;;;;;;;;;;;7.80;99.90;;;;;;4981529;28;20420;-75
2022/12/24 04:02:36;;;;;;;;;;;7.80;99.90;;;;;;4982917;28;19922;-75
2022/12/24 04:05:04;;;;;;;;;;;7.80;99.90;;;;;;4983167;28;20407;-75
2022/12/24 04:07:31;;;;;;;;;;;8.00;99.90;;;;;;4979980;28;19922;-75
2022/12/24 04:09:56;;;;;;;;;;;7.80;99.90;;;;;;4983444;28;19969;-75
2022/12/24 04:12:22;;;;;;;;;;;8.80;99.90;;;;;;4982334;28;19972;-75
2022/12/24 04:14:47;;;;;;;;;;;7.90;99.90;;;;;;4983244;28;19980;-75
2022/12/24 04:17:13;;;;;;;;;;;7.90;99.90;;;;;;4981094;28;19957;-75
2022/12/24 04:19:38;;;;;;;;;;;7.90;99.90;;;;;;4979353;28;20348;-75
2022/12/24 04:22:04;;;;;;;;;;;7.80;99.90;;;;;;4981107;28;19925;-75
2022/12/24 04:24:29;;;;;;;;;;;7.90;99.90;;;;;;4984587;28;19917;-75
2022/12/24 04:26:55;;;;;;;;;;;7.80;99.90;;;;;;4980439;28;19922;-75
2022/12/24 04:29:20;;;;;;;;;;;7.90;99.90;;;;;;4981690;28;20728;-75
2022/12/24 04:31:46;;;;;;;;;;;7.90;99.90;;;;;;4982663;28;20459;-75
2022/12/24 04:34:11;;;;;;;;;;;7.80;99.90;;;;;;4982473;28;19984;-75
2022/12/24 04:36:37;;;;;;;;;;;8.10;99.90;;;;;;4983065;28;20322;-75
2022/12/24 04:39:02;;;;;;;;;;;7.70;99.90;;;;;;4981881;28;20064;-75
2022/12/24 04:41:28;;;;;;;;;;;8.70;99.90;;;;;;4983166;28;19928;-75
2022/12/24 04:43:54;;;;;;;;;;;7.70;99.90;;;;;;4980747;28;19972;-75
2022/12/24 04:46:20;;;;;;;;;;;7.70;99.90;;;;;;4983559;28;20329;-75
2022/12/24 04:48:50;;;;;;;;;;;9.00;99.90;;;;;;4980440;28;19921;-75
2022/12/24 04:51:16;;;;;;;;;;;7.90;99.90;;;;;;4982129;28;19969;-75
2022/12/24 04:53:42;;;;;;;;;;;7.80;99.90;;;;;;4981386;28;20337;-76
2022/12/24 04:56:15;;;;;;;;;;;8.30;99.90;;;;;;4982102;28;19926;-76
2022/12/24 04:58:46;;;;;;;;;;;7.80;99.90;;;;;;4980829;28;19944;-75
2022/12/24 05:01:14;;;;;;;;;;;9.10;99.90;;;;;;4981961;28;19929;-76
2022/12/24 05:03:40;;;;;;;;;;;8.40;99.90;;;;;;4982270;28;19926;-76
2022/12/24 05:06:07;;;;;;;;;;;7.90;99.90;;;;;;4980072;28;20289;-76
2022/12/24 05:08:33;;;;;;;;;;;7.90;99.90;;;;;;4982907;28;19992;-76
2022/12/24 05:10:59;;;;;;;;;;;7.80;99.90;;;;;;4980213;28;20412;-75
2022/12/24 05:13:24;;;;;;;;;;;7.80;99.90;;;;;;4982055;28;19926;-76
2022/12/24 05:15:50;;;;;;;;;;;7.80;99.90;;;;;;4976919;28;19922;-76
2022/12/24 05:18:15;;;;;;;;;;;8.00;99.90;;;;;;4981465;28;20016;-76
2022/12/24 05:20:41;;;;;;;;;;;8.20;99.90;;;;;;4982098;28;20301;-75
2022/12/24 05:28:36;;;;;;;;;;;7.70;99.90;;;;;;4980770;28;19926;-76
2022/12/24 05:31:01;;;;;;;;;;;8.20;99.90;;;;;;4982246;28;20444;-76
2022/12/24 05:33:27;;;;;;;;;;;7.60;99.90;;;;;;4982628;28;19922;-76
2022/12/24 05:35:52;;;;;;;;;;;7.60;99.90;;;;;;4987147;28;19928;-76
2022/12/24 05:38:18;;;;;;;;;;;7.90;99.90;;;;;;4984160;28;20330;-76
2022/12/24 05:40:43;;;;;;;;;;;8.00;99.90;;;;;;4986015;28;20420;-76
2022/12/24 05:43:09;;;;;;;;;;;8.30;99.90;;;;;;4984739;28;19980;-76
2022/12/24 05:45:34;;;;;;;;;;;7.60;99.90;;;;;;4984253;28;19922;-76
2022/12/24 05:48:00;;;;;;;;;;;7.60;99.90;;;;;;4982897;28;19992;-76
2022/12/24 05:50:25;;;;;;;;;;;7.60;99.90;;;;;;4985557;28;19922;-76
2022/12/24 05:52:51;;;;;;;;;;;8.00;99.90;;;;;;4982041;28;19929;-76
2022/12/24 05:55:16;;;;;;;;;;;7.60;99.90;;;;;;4983648;28;19996;-76
2022/12/24 05:57:42;;;;;;;;;;;7.70;99.90;;;;;;4987137;28;20026;-76
2022/12/24 06:00:08;;;;;;;;;;;7.40;99.90;;;;;;4984967;28;20359;-76
2022/12/24 06:02:33;;;;;;;;;;;7.40;99.90;;;;;;4984618;28;20027;-76
2022/12/24 06:04:59;;;;;;;;;;;7.30;99.90;;;;;;4984035;28;19928;-76
2022/12/24 06:07:24;;;;;;;;;;;7.30;99.90;;;;;;4984432;28;19922;-76
2022/12/24 06:09:50;;;;;;;;;;;7.30;99.90;;;;;;4984114;28;20296;-76
2022/12/24 06:12:15;;;;;;;;;;;7.30;99.90;;;;;;4984008;28;19921;-76
2022/12/24 06:14:41;;;;;;;;;;;7.30;99.90;;;;;;4986599;28;19991;-76
2022/12/24 06:17:06;;;;;;;;;;;7.20;99.90;;;;;;4983821;28;19922;-77
2022/12/24 06:19:32;;;;;;;;;;;7.80;99.90;;;;;;4985707;28;19922;-76
2022/12/24 06:21:57;;;;;;;;;;;7.30;99.90;;;;;;4984130;28;20478;-76
2022/12/24 06:24:23;;;;;;;;;;;7.20;99.90;;;;;;4982889;28;19918;-76
2022/12/24 06:26:49;;;;;;;;;;;7.10;99.90;;;;;;4992381;28;19922;-76
2022/12/24 06:29:14;;;;;;;;;;;7.10;99.90;;;;;;4981633;28;19918;-76
2022/12/24 06:31:40;;;;;;;;;;;7.30;99.90;;;;;;4986482;28;19928;-76
2022/12/24 06:34:05;;;;;;;;;;;7.10;99.90;;;;;;4983173;28;20013;-76
2022/12/24 06:36:31;;;;;;;;;;;7.10;99.90;;;;;;4981779;28;19932;-76
2022/12/24 06:38:56;;;;;;;;;;;7.10;99.90;;;;;;4984925;28;20016;-77
2022/12/24 06:41:22;;;;;;;;;;;7.00;99.90;;;;;;4984812;28;19929;-76
2022/12/24 06:43:49;;;;;;;;;;;8.30;99.90;;;;;;4980718;28;19929;-77
2022/12/24 06:46:15;;;;;;;;;;;7.00;99.90;;;;;;4984708;28;19922;-77
2022/12/24 06:48:41;;;;;;;;;;;7.00;99.90;;;;;;4983068;28;19926;-77
2022/12/24 06:51:07;;;;;;;;;;;7.20;99.90;;;;;;4982376;28;20018;-76
2022/12/24 06:53:32;;;;;;;;;;;7.00;99.90;;;;;;4982283;28;20437;-76
2022/12/24 06:56:05;;;;;;;;;;;6.90;99.90;;;;;;4984275;28;19936;-76
2022/12/24 06:58:31;;;;;;;;;;;6.90;99.90;;;;;;4980604;28;19922;-77
2022/12/24 07:00:57;;;;;;;;;;;7.60;99.90;;;;;;4985137;28;20057;-77
2022/12/24 07:03:22;;;;;;;;;;;6.90;99.90;;;;;;4981353;28;20012;-76
2022/12/24 07:05:48;;;;;;;;;;;6.90;99.90;;;;;;4982736;28;19922;-76
2022/12/24 07:08:13;;;;;;;;;;;6.80;99.90;;;;;;4982248;28;19922;-76
2022/12/24 07:10:39;;;;;;;;;;;7.50;99.90;;;;;;4985198;28;20297;-76
2022/12/24 07:13:04;;;;;;;;;;;6.70;99.90;;;;;;4981590;28;19922;-76
2022/12/24 07:15:30;;;;;;;;;;;6.60;99.90;;;;;;4985825;28;19922;-76
2022/12/24 07:17:55;;;;;;;;;;;6.60;99.90;;;;;;4981927;28;20333;-77
2022/12/24 07:20:21;;;;;;;;;;;6.60;99.90;;;;;;4980936;28;19960;-76
2022/12/24 07:22:46;;;;;;;;;;;7.30;99.90;;;;;;4982447;28;19928;-76
2022/12/24 07:25:12;;;;;;;;;;;6.50;99.90;;;;;;4982497;28;19921;-76
2022/12/24 07:27:38;;;;;;;;;;;6.50;99.90;;;;;;4982887;28;19934;-76
2022/12/24 07:30:04;;;;;;;;;;;6.70;99.90;;;;;;4975328;28;20449;-77
2022/12/24 07:32:29;;;;;;;;;;;6.50;99.90;;;;;;4980751;28;19922;-77
2022/12/24 07:34:55;;;;;;;;;;;6.60;99.90;;;;;;4983426;28;20278;-77
2022/12/24 07:37:20;;;;;;;;;;;6.90;99.90;;;;;;4981070;28;19968;-76
2022/12/24 07:39:46;;;;;;;;;;;6.60;99.90;;;;;;4978163;28;19961;-78
2022/12/24 07:42:11;;;;;;;;;;;6.90;99.90;;;;;;4979260;28;20280;-78
2022/12/24 07:44:37;;;;;;;;;;;6.60;99.90;;;;;;4982553;28;19929;-77
2022/12/24 07:47:02;;;;;;;;;;;6.50;99.90;;;;;;4981074;28;20290;-78
2022/12/24 07:49:28;;;;;;;;;;;6.50;99.90;;;;;;4984496;28;19921;-77
2022/12/24 07:51:53;;;;;;;;;;;6.50;99.90;;;;;;4979908;28;20300;-76
2022/12/24 07:54:19;;;;;;;;;;;6.70;99.90;;;;;;4979136;28;19973;-76
2022/12/24 07:56:45;;;;;;;;;;;6.50;99.90;;;;;;4981308;28;19922;-76
2022/12/24 07:59:13;;;;;;;;;;;7.50;99.90;;;;;;4980861;28;19941;-75
2022/12/24 08:01:39;;;;;;;;;;;6.60;99.90;;;;;;4980709;28;19981;-76
2022/12/24 08:04:05;;;;;;;;;;;7.10;99.90;;;;;;4973730;28;19980;-76
2022/12/24 08:06:30;;;;;;;;;;;6.90;99.90;;;;;;4979481;28;19926;-77
2022/12/24 08:08:56;;;;;;;;;;;7.30;99.90;;;;;;4978434;28;20293;-74
2022/12/24 08:11:21;;;;;;;;;;;6.90;99.90;;;;;;4980192;28;19932;-75
2022/12/24 08:13:47;;;;;;;;;;;7.60;99.90;;;;;;4979695;28;19926;-76
2022/12/24 08:16:12;;;;;;;;;;;7.00;99.90;;;;;;4981621;28;19922;-76
2022/12/24 08:18:38;;;;;;;;;;;7.00;99.90;;;;;;4979558;28;19929;-77
2022/12/24 08:21:06;;;;;;;;;;;7.80;99.90;;;;;;4977687;28;19922;-73
2022/12/24 08:23:31;;;;;;;;;;;7.00;99.90;;;;;;4974255;28;19976;-74
2022/12/24 08:25:57;;;;;;;;;;;7.30;99.90;;;;;;4975458;28;19922;-74
2022/12/24 08:28:22;;;;;;;;;;;7.20;99.90;;;;;;4972080;28;19922;-71
2022/12/24 08:30:50;;;;;;;;;;;7.30;99.90;;;;;;4976874;28;20019;-72
2022/12/24 08:33:16;;;;;;;;;;;7.40;99.90;;;;;;4980009;28;19922;-72
2022/12/24 08:35:49;;;;;;;;;;;8.20;99.90;;;;;;4980679;28;19930;-76
2022/12/24 08:38:15;;;;;;;;;;;8.60;99.90;;;;;;4983168;28;19944;-71
2022/12/24 08:40:41;;;;;;;;;;;7.70;99.90;;;;;;4981862;28;20362;-72
2022/12/24 08:43:06;;;;;;;;;;;8.00;99.90;;;;;;4981461;28;20009;-73
2022/12/24 08:45:32;;;;;;;;;;;7.90;99.90;;;;;;4979574;28;19925;-75
2022/12/24 08:47:58;;;;;;;;;;;7.90;99.90;;;;;;4980727;28;19929;-76
2022/12/24 08:50:23;;;;;;;;;;;8.30;99.90;;;;;;4982461;28;20276;-71
2022/12/24 08:52:49;;;;;;;;;;;8.00;99.90;;;;;;4980512;28;19948;-73
2022/12/24 08:55:14;;;;;;;;;;;8.10;99.90;;;;;;4983770;28;20432;-69
2022/12/24 08:57:40;;;;;;;;;;;8.20;99.90;;;;;;4978912;28;20287;-70
2022/12/24 09:00:06;;;;;;;;;;;8.20;99.90;;;;;;4982939;28;20285;-71
2022/12/24 09:02:32;;;;;;;;;;;8.30;99.90;;;;;;4979670;28;20325;-73
2022/12/24 09:04:57;;;;;;;;;;;8.30;99.90;;;;;;4977736;28;19941;-72
2022/12/24 09:07:24;;;;;;;;;;;8.40;99.90;;;;;;4982748;28;19921;-72
2022/12/24 09:09:49;;;;;;;;;;;8.60;99.90;;;;;;4984177;28;20259;-72
2022/12/24 09:12:15;;;;;;;;;;;9.40;99.90;;;;;;4985528;28;19929;-72
2022/12/24 09:14:40;;;;;;;;;;;9.00;99.90;;;;;;4978728;28;20016;-72
2022/12/24 09:17:06;;;;;;;;;;;9.10;99.90;;;;;;4984650;28;19929;-72
2022/12/24 09:19:31;;;;;;;;;;;9.70;99.90;;;;;;4983991;28;19925;-72
2022/12/24 09:21:57;;;;;;;;;;;9.10;99.90;;;;;;4985034;28;19930;-72
2022/12/24 09:24:22;;;;;;;;;;;9.20;99.90;;;;;;4984761;28;19937;-72
2022/12/24 09:26:48;;;;;;;;;;;9.20;99.90;;;;;;4984402;28;19922;-72
2022/12/24 09:29:14;;;;;;;;;;;9.20;99.90;;;;;;4985891;28;19922;-72
2022/12/24 09:31:39;;;;;;;;;;;9.20;99.90;;;;;;4983043;28;20008;-73
2022/12/24 09:34:05;;;;;;;;;;;9.20;99.90;;;;;;4984229;28;20017;-73
2022/12/24 09:36:30;;;;;;;;;;;9.20;99.90;;;;;;4986499;28;21377;-73
2022/12/24 09:38:56;;;;;;;;;;;9.30;99.90;;;;;;4984504;28;19922;-73
2022/12/24 09:41:21;;;;;;;;;;;9.40;99.90;;;;;;4983773;28;19929;-73
2022/12/24 09:43:51;;;;;;;;;;;9.90;99.90;;;;;;4986375;28;19921;-72
2022/12/24 09:46:21;;;;;;;;;;;10.30;99.90;;;;;;4982664;28;19949;-73
2022/12/24 09:48:49;;;;;;;;;;;10.30;99.90;;;;;;4985444;28;19948;-72
2022/12/24 09:51:47;;;;;;;;;;;10.80;99.90;;;;;;4983192;28;19929;-73
2022/12/24 09:54:16;;;;;;;;;;;9.80;99.90;;;;;;4950686;28;19969;-72
2022/12/24 09:56:43;;;;;;;;;;;9.70;99.90;;;;;;4982802;28;20017;-72
2022/12/24 09:59:25;;;;;;;;;;;9.50;99.90;;;;;;4985580;28;19925;-73
2022/12/24 10:01:52;;;;;;;;;;;9.40;99.90;;;;;;4984762;28;19922;-72
2022/12/24 10:04:19;;;;;;;;;;;9.40;99.90;;;;;;4985375;28;19918;-72
2022/12/24 10:06:52;;;;;;;;;;;9.30;99.90;;;;;;4984088;28;19929;-73
2022/12/24 10:09:17;;;;;;;;;;;9.40;99.90;;;;;;4982546;28;19949;-72
2022/12/24 10:11:49;;;;;;;;;;;9.40;99.90;;;;;;4984110;28;19921;-73
2022/12/24 10:14:25;;;;;;;;;;;9.30;99.90;;;;;;4982546;28;20365;-72
2022/12/24 10:16:57;;;;;;;;;;;9.30;99.90;;;;;;4984185;28;20368;-73
2022/12/24 10:19:22;;;;;;;;;;;9.60;99.90;;;;;;4985165;28;19929;-73
2022/12/24 10:22:02;;;;;;;;;;;9.50;99.90;;;;;;4982847;28;19921;-72
2022/12/24 10:24:43;;;;;;;;;;;9.30;99.90;;;;;;4984093;28;19922;-72
2022/12/24 10:27:15;;;;;;;;;;;9.30;99.90;;;;;;4980058;28;20000;-72
2022/12/24 10:29:43;;;;;;;;;;;9.40;99.90;;;;;;4983971;28;19922;-72
2022/12/24 10:32:09;;;;;;;;;;;9.40;99.90;;;;;;4983856;28;19921;-73
2022/12/24 10:34:37;;;;;;;;;;;9.30;99.90;;;;;;4984387;28;19929;-73
2022/12/24 10:37:03;;;;;;;;;;;9.30;99.90;;;;;;4981728;28;20017;-73
2022/12/24 10:39:29;;;;;;;;;;;9.40;99.90;;;;;;4985166;28;19922;-73
2022/12/24 10:41:56;;;;;;;;;;;9.30;99.90;;;;;;4980841;28;19922;-74
2022/12/24 10:44:25;;;;;;;;;;;9.40;99.90;;;;;;4984095;28;19921;-73
2022/12/24 10:46:50;;;;;;;;;;;9.90;99.90;;;;;;4983083;28;19922;-74
2022/12/24 10:49:18;;;;;;;;;;;9.30;99.90;;;;;;4980464;28;19944;-73
2022/12/24 10:51:50;;;;;;;;;;;9.80;99.90;;;;;;4982781;28;19930;-73
2022/12/24 10:54:16;;;;;;;;;;;9.20;99.90;;;;;;4983228;28;19922;-72
2022/12/24 10:56:49;;;;;;;;;;;9.20;99.90;;;;;;4982965;28;20393;-73
2022/12/24 10:59:25;;;;;;;;;;;9.30;99.90;;;;;;4975540;28;19922;-73
2022/12/24 11:01:51;;;;;;;;;;;9.30;99.90;;;;;;4980790;28;19973;-75
2022/12/24 11:04:21;;;;;;;;;;;9.30;99.90;;;;;;4982976;28;19969;-74
2022/12/24 11:06:51;;;;;;;;;;;9.30;99.90;;;;;;4981902;28;19918;-76
2022/12/24 11:09:21;;;;;;;;;;;9.30;99.90;;;;;;4985119;28;19956;-73
2022/12/24 11:11:47;;;;;;;;;;;9.30;99.90;;;;;;4982299;28;19928;-79
2022/12/24 11:14:15;;;;;;;;;;;9.30;99.90;;;;;;4982434;28;19931;-78
2022/12/24 11:16:47;;;;;;;;;;;9.30;99.90;;;;;;4987078;28;19961;-78
2022/12/24 11:19:17;;;;;;;;;;;9.40;99.90;;;;;;4985241;28;20288;-81
2022/12/24 11:21:43;;;;;;;;;;;9.40;99.90;;;;;;4985179;28;20056;-83
2022/12/24 11:24:11;;;;;;;;;;;9.40;99.90;;;;;;4984116;28;19961;-91
2022/12/24 11:26:37;;;;;;;;;;;9.40;99.90;;;;;;4981266;28;20282;-85
2022/12/24 11:29:14;;;;;;;;;;;9.40;99.90;;;;;;4982868;28;19929;-89
2022/12/24 11:31:41;;;;;;;;;;;9.40;99.90;;;;;;4987803;28;20280;-82
2022/12/24 11:34:21;;;;;;;;;;;9.40;99.90;;;;;;4980596;28;19922;-87
2022/12/24 11:36:47;;;;;;;;;;;9.40;99.90;;;;;;4983757;28;20281;-78
2022/12/24 11:39:23;;;;;;;;;;;9.40;99.90;;;;;;4983132;28;19926;-76
2022/12/24 11:41:51;;;;;;;;;;;9.40;99.90;;;;;;4978100;28;20412;-75
2022/12/24 11:44:25;;;;;;;;;;;9.50;99.90;;;;;;4976807;28;19921;-83
2022/12/24 11:46:55;;;;;;;;;;;9.40;99.90;;;;;;4976441;28;20370;-75
2022/12/24 11:49:23;;;;;;;;;;;9.50;99.90;;;;;;4979664;28;19929;-77
2022/12/24 11:52:07;;;;;;;;;;;9.40;99.90;;;;;;4983617;28;19925;-74
2022/12/24 11:54:36;;;;;;;;;;;9.40;99.90;;;;;;4979722;28;19992;-73
2022/12/24 11:57:02;;;;;;;;;;;9.40;99.90;;;;;;4982850;28;20293;-73
2022/12/24 11:59:28;;;;;;;;;;;9.50;99.90;;;;;;4985154;28;19926;-72
2022/12/24 12:02:08;;;;;;;;;;;9.40;99.90;;;;;;4983581;28;19922;-75
2022/12/24 12:04:34;;;;;;;;;;;9.30;99.90;;;;;;4980522;28;19926;-70
2022/12/24 12:07:03;;;;;;;;;;;9.60;99.90;;;;;;4982146;28;19926;-70
2022/12/24 12:09:40;;;;;;;;;;;9.30;99.90;;;;;;4981401;28;19929;-69
2022/12/24 12:12:08;;;;;;;;;;;9.30;99.90;;;;;;4981211;28;20352;-70
2022/12/24 12:14:43;;;;;;;;;;;9.30;99.90;;;;;;4979813;28;20400;-70
2022/12/24 12:17:28;;;;;;;;;;;9.20;99.90;;;;;;4981314;28;20432;-71
2022/12/24 12:19:56;;;;;;;;;;;9.30;99.90;;;;;;4982629;28;19976;-71
2022/12/24 12:22:42;;;;;;;;;;;9.20;99.90;;;;;;4983989;28;19933;-71
2022/12/24 12:25:16;;;;;;;;;;;9.60;99.90;;;;;;4952047;28;19969;-76
2022/12/24 12:27:43;;;;;;;;;;;9.20;99.90;;;;;;4982416;28;20007;-73
2022/12/24 12:30:15;;;;;;;;;;;9.50;99.90;;;;;;4980361;28;19937;-73
2022/12/24 12:33:10;;;;;;;;;;;9.10;99.90;;;;;;4975901;28;19928;-71
2022/12/24 12:35:40;;;;;;;;;;;9.10;99.90;;;;;;4974436;28;19922;-72
2022/12/24 12:38:15;;;;;;;;;;;9.10;99.90;;;;;;4975638;28;19926;-75
2022/12/24 12:40:41;;;;;;;;;;;9.10;99.90;;;;;;4971581;28;19979;-75
2022/12/24 12:43:25;;;;;;;;;;;9.10;99.90;;;;;;4983609;28;19961;-73
2022/12/24 12:45:56;;;;;;;;;;;9.10;99.90;;;;;;4988911;28;19972;-74
2022/12/24 12:48:28;;;;;;;;;;;9.10;99.90;;;;;;4987203;28;20020;-74
2022/12/24 12:50:59;;;;;;;;;;;9.00;99.90;;;;;;4985173;28;20408;-73
2022/12/24 12:53:34;;;;;;;;;;;9.10;99.90;;;;;;4984937;28;19928;-73
2022/12/24 12:56:18;;;;;;;;;;;9.10;99.90;;;;;;4979533;28;21117;-74
2022/12/24 12:58:47;;;;;;;;;;;9.10;99.90;;;;;;4981269;28;19929;-74
2022/12/24 13:01:13;;;;;;;;;;;9.20;99.90;;;;;;4979969;28;19921;-76
2022/12/24 13:03:44;;;;;;;;;;;9.30;99.90;;;;;;4982099;28;20325;-77
2022/12/24 13:06:22;;;;;;;;;;;9.30;99.90;;;;;;4983484;28;19969;-77
2022/12/24 13:08:48;;;;;;;;;;;9.70;99.90;;;;;;4986855;28;19953;-79
2022/12/24 13:11:13;;;;;;;;;;;10.10;99.90;;;;;;4985865;28;19922;-74
2022/12/24 13:13:49;;;;;;;;;;;10.20;99.90;;;;;;4985064;28;19926;-79
2022/12/24 13:16:33;;;;;;;;;;;10.30;99.90;;;;;;4983457;28;19922;-74
2022/12/24 13:19:17;;;;;;;;;;;10.60;99.90;;;;;;4985507;28;20027;-75
2022/12/24 13:21:44;;;;;;;;;;;10.70;99.90;;;;;;4978999;28;19926;-75
2022/12/24 13:24:17;;;;;;;;;;;10.90;99.90;;;;;;4982951;28;21124;-74
2022/12/24 13:27:03;;;;;;;;;;;10.90;99.90;;;;;;4979938;28;20274;-76
2022/12/24 13:29:35;;;;;;;;;;;10.70;99.90;;;;;;4975120;28;19922;-73
2022/12/24 13:32:19;;;;;;;;;;;10.30;99.90;;;;;;4980664;28;19968;-72
2022/12/24 13:34:49;;;;;;;;;;;10.00;99.90;;;;;;4981503;28;19937;-74
2022/12/24 13:37:33;;;;;;;;;;;9.60;99.90;;;;;;4985747;28;19922;-73
2022/12/24 13:40:00;;;;;;;;;;;9.30;99.90;;;;;;4971536;28;19980;-72
2022/12/24 13:42:44;;;;;;;;;;;9.20;99.90;;;;;;4979072;28;19922;-73
2022/12/24 13:45:31;;;;;;;;;;;8.90;99.90;;;;;;4978759;28;19921;-74
2022/12/24 13:48:16;;;;;;;;;;;8.90;99.90;;;;;;4981509;28;19922;-71
2022/12/24 13:50:44;;;;;;;;;;;9.60;99.90;;;;;;4980044;28;19930;-72
2022/12/24 13:53:36;;;;;;;;;;;8.70;99.90;;;;;;4981035;28;19922;-73
2022/12/24 13:56:04;;;;;;;;;;;8.70;99.90;;;;;;4974996;28;20313;-73
2022/12/24 13:58:30;;;;;;;;;;;8.70;99.90;;;;;;4984654;28;19980;-75
2022/12/24 14:01:09;;;;;;;;;;;8.90;99.90;;;;;;4983050;28;19961;-73
2022/12/24 14:03:55;;;;;;;;;;;8.60;99.90;;;;;;4979547;28;19981;-71
2022/12/24 14:06:25;;;;;;;;;;;8.50;99.90;;;;;;4984110;28;20289;-76
2022/12/24 14:08:51;;;;;;;;;;;8.40;99.90;;;;;;4980667;28;19944;-71
2022/12/24 14:11:21;;;;;;;;;;;8.30;99.90;;;;;;4979768;28;19921;-72
2022/12/24 14:13:47;;;;;;;;;;;8.40;99.90;;;;;;4980749;28;19922;-71
2022/12/24 14:16:28;;;;;;;;;;;8.70;99.90;;;;;;4983546;28;19928;-70
2022/12/24 14:19:03;;;;;;;;;;;8.30;99.90;;;;;;4980329;28;19976;-74
2022/12/24 14:21:30;;;;;;;;;;;8.10;99.90;;;;;;4981502;28;19926;-73
2022/12/24 14:23:56;;;;;;;;;;;8.00;99.90;;;;;;4981607;28;20434;-72
2022/12/24 14:26:23;;;;;;;;;;;8.10;99.90;;;;;;4986631;28;19984;-70
2022/12/24 14:28:56;;;;;;;;;;;7.90;99.90;;;;;;4978254;28;19934;-71
2022/12/24 14:31:22;;;;;;;;;;;7.80;99.90;;;;;;4969031;28;20329;-73
2022/12/24 14:33:48;;;;;;;;;;;7.90;99.90;;;;;;4972146;28;19937;-74
2022/12/24 14:36:16;;;;;;;;;;;8.60;99.90;;;;;;4983093;28;19940;-74
2022/12/24 14:38:43;;;;;;;;;;;7.60;99.90;;;;;;4981703;28;19922;-72
2022/12/24 14:41:23;;;;;;;;;;;7.60;99.90;;;;;;4983680;28;20418;-72
2022/12/24 14:44:03;;;;;;;;;;;7.50;99.90;;;;;;4978454;28;20374;-71